Terminal Aerodrome Forecast
Issued by NWS Mt. Holly, NJ

Home | Current Version | Previous Version | Text Only | Print | Product List | Glossary On
Versions: 1 2 3 4 5 6 7 8 9 10 11 12 13 14 15 16 17 18 19 20 21 22 23 24 25 26 27 28 29 30 31 32 33
000
FTUS41 KPHI 251501 AAB
TAFPHL
TAF AMD
KPHL 251501Z 2515/2618 08008G18KT 6SM -RA BR BKN007 OVC011
      TEMPO 2515/2517 33010G18KT 3SM RA BR OVC005
     FM251700 08006KT P6SM VCSH OVC009
     FM251800 27006KT P6SM VCSH OVC011
     FM251900 27005KT P6SM BKN025
     FM252300 27004KT P6SM BKN035
     FM260700 31005KT P6SM OVC200=

USA.gov is the U.S. government's official web portal to all federal, state and local government web resources and services.